sensor_id;sensor_type;location;lat;lon;timestamp;temperature;humidity
569;DHT22;269;48.884;9.192;2023-05-28T00:01:44;16.50;77.40
569;DHT22;269;48.884;9.192;2023-05-28T00:04:12;16.30;77.50
569;DHT22;269;48.884;9.192;2023-05-28T00:06:39;16.20;77.40
569;DHT22;269;48.884;9.192;2023-05-28T00:09:07;16.20;77.40
569;DHT22;269;48.884;9.192;2023-05-28T00:11:35;16.20;77.20
569;DHT22;269;48.884;9.192;2023-05-28T00:14:02;16.20;76.80
569;DHT22;269;48.884;9.192;2023-05-28T00:16:29;16.10;76.50
569;DHT22;269;48.884;9.192;2023-05-28T00:18:56;16.10;76.20
569;DHT22;269;48.884;9.192;2023-05-28T00:21:24;16.10;76.00
569;DHT22;269;48.884;9.192;2023-05-28T00:23:52;16.10;76.20
569;DHT22;269;48.884;9.192;2023-05-28T00:26:19;16.00;75.90
569;DHT22;269;48.884;9.192;2023-05-28T00:28:46;16.00;75.90
569;DHT22;269;48.884;9.192;2023-05-28T00:31:14;16.00;75.90
569;DHT22;269;48.884;9.192;2023-05-28T00:33:41;15.90;75.80
569;DHT22;269;48.884;9.192;2023-05-28T00:36:09;15.90;75.90
569;DHT22;269;48.884;9.192;2023-05-28T00:38:37;15.90;76.00
569;DHT22;269;48.884;9.192;2023-05-28T00:41:04;15.90;75.90
569;DHT22;269;48.884;9.192;2023-05-28T00:43:31;15.80;76.00
569;DHT22;269;48.884;9.192;2023-05-28T00:46:00;15.80;76.00
569;DHT22;269;48.884;9.192;2023-05-28T00:48:28;15.80;76.40
569;DHT22;269;48.884;9.192;2023-05-28T00:50:56;15.80;76.80
569;DHT22;269;48.884;9.192;2023-05-28T00:53:24;15.70;77.10
569;DHT22;269;48.884;9.192;2023-05-28T00:55:53;15.70;77.60
569;DHT22;269;48.884;9.192;2023-05-28T00:58:21;15.70;77.90
569;DHT22;269;48.884;9.192;2023-05-28T01:00:49;15.60;78.10
569;DHT22;269;48.884;9.192;2023-05-28T01:03:16;15.60;78.60
569;DHT22;269;48.884;9.192;2023-05-28T01:05:43;15.60;79.10
569;DHT22;269;48.884;9.192;2023-05-28T01:08:10;15.60;79.40
569;DHT22;269;48.884;9.192;2023-05-28T01:10:38;15.50;79.80
569;DHT22;269;48.884;9.192;2023-05-28T01:13:07;15.50;80.20
569;DHT22;269;48.884;9.192;2023-05-28T01:15:35;15.50;80.70
569;DHT22;269;48.884;9.192;2023-05-28T01:18:03;15.50;81.00
569;DHT22;269;48.884;9.192;2023-05-28T01:20:32;15.40;81.30
569;DHT22;269;48.884;9.192;2023-05-28T01:23:05;15.30;81.50
569;DHT22;269;48.884;9.192;2023-05-28T01:25:34;15.30;81.80
569;DHT22;269;48.884;9.192;2023-05-28T01:28:10;15.30;82.20
569;DHT22;269;48.884;9.192;2023-05-28T01:30:38;15.30;82.60
569;DHT22;269;48.884;9.192;2023-05-28T01:33:06;15.20;82.70
569;DHT22;269;48.884;9.192;2023-05-28T01:35:33;15.20;83.00
569;DHT22;269;48.884;9.192;2023-05-28T01:38:01;15.20;83.40
569;DHT22;269;48.884;9.192;2023-05-28T01:40:30;15.10;83.70
569;DHT22;269;48.884;9.192;2023-05-28T01:42:59;15.10;84.10
569;DHT22;269;48.884;9.192;2023-05-28T01:45:28;15.10;84.30
569;DHT22;269;48.884;9.192;2023-05-28T01:47:56;15.00;84.40
569;DHT22;269;48.884;9.192;2023-05-28T01:50:23;15.00;84.60
569;DHT22;269;48.884;9.192;2023-05-28T01:52:51;15.00;85.00
569;DHT22;269;48.884;9.192;2023-05-28T01:55:18;15.20;85.40
569;DHT22;269;48.884;9.192;2023-05-28T01:57:45;14.90;85.20
569;DHT22;269;48.884;9.192;2023-05-28T02:00:14;14.90;85.30
569;DHT22;269;48.884;9.192;2023-05-28T02:02:42;14.90;85.30
569;DHT22;269;48.884;9.192;2023-05-28T02:05:09;14.80;85.50
569;DHT22;269;48.884;9.192;2023-05-28T02:07:37;14.80;85.50
569;DHT22;269;48.884;9.192;2023-05-28T02:10:05;14.80;85.30
569;DHT22;269;48.884;9.192;2023-05-28T02:12:32;14.70;85.10
569;DHT22;269;48.884;9.192;2023-05-28T02:14:59;14.70;84.90
569;DHT22;269;48.884;9.192;2023-05-28T02:17:28;14.60;84.90
569;DHT22;269;48.884;9.192;2023-05-28T02:19:54;14.60;85.30
569;DHT22;269;48.884;9.192;2023-05-28T02:22:21;14.60;85.90
569;DHT22;269;48.884;9.192;2023-05-28T02:24:48;14.60;86.20
569;DHT22;269;48.884;9.192;2023-05-28T02:27:16;14.60;86.40
569;DHT22;269;48.884;9.192;2023-05-28T02:29:43;14.50;86.50
569;DHT22;269;48.884;9.192;2023-05-28T02:32:11;14.50;86.70
569;DHT22;269;48.884;9.192;2023-05-28T02:34:40;14.50;87.00
569;DHT22;269;48.884;9.192;2023-05-28T02:37:07;14.50;87.70
569;DHT22;269;48.884;9.192;2023-05-28T02:39:35;14.50;88.00
569;DHT22;269;48.884;9.192;2023-05-28T02:42:02;14.40;88.10
569;DHT22;269;48.884;9.192;2023-05-28T02:44:29;14.40;88.60
569;DHT22;269;48.884;9.192;2023-05-28T02:46:56;14.40;89.10
569;DHT22;269;48.884;9.192;2023-05-28T02:49:23;14.30;89.30
569;DHT22;269;48.884;9.192;2023-05-28T02:51:51;14.30;90.00
569;DHT22;269;48.884;9.192;2023-05-28T02:54:18;14.30;90.30
569;DHT22;269;48.884;9.192;2023-05-28T02:56:45;14.30;90.30
569;DHT22;269;48.884;9.192;2023-05-28T02:59:12;14.20;90.30
569;DHT22;269;48.884;9.192;2023-05-28T03:01:39;14.20;90.50
569;DHT22;269;48.884;9.192;2023-05-28T03:04:07;14.10;90.70
569;DHT22;269;48.884;9.192;2023-05-28T03:06:33;14.10;90.80
569;DHT22;269;48.884;9.192;2023-05-28T03:09:03;14.10;91.10
569;DHT22;269;48.884;9.192;2023-05-28T03:11:30;14.00;91.30
569;DHT22;269;48.884;9.192;2023-05-28T03:13:57;14.00;91.50
569;DHT22;269;48.884;9.192;2023-05-28T03:16:24;13.90;91.60
569;DHT22;269;48.884;9.192;2023-05-28T03:18:51;13.90;91.80
569;DHT22;269;48.884;9.192;2023-05-28T03:21:18;13.90;92.00
569;DHT22;269;48.884;9.192;2023-05-28T03:23:46;13.80;92.30
569;DHT22;269;48.884;9.192;2023-05-28T03:26:14;13.80;92.40
569;DHT22;269;48.884;9.192;2023-05-28T03:28:41;13.70;92.30
569;DHT22;269;48.884;9.192;2023-05-28T03:31:08;13.70;92.40
569;DHT22;269;48.884;9.192;2023-05-28T03:33:35;13.70;92.70
569;DHT22;269;48.884;9.192;2023-05-28T03:36:02;13.70;92.80
569;DHT22;269;48.884;9.192;2023-05-28T03:38:29;13.60;92.80
569;DHT22;269;48.884;9.192;2023-05-28T03:40:56;13.60;93.00
569;DHT22;269;48.884;9.192;2023-05-28T03:43:24;13.60;93.20
569;DHT22;269;48.884;9.192;2023-05-28T03:45:52;13.50;93.40
569;DHT22;269;48.884;9.192;2023-05-28T03:48:18;13.50;93.50
569;DHT22;269;48.884;9.192;2023-05-28T03:50:46;13.50;93.70
569;DHT22;269;48.884;9.192;2023-05-28T03:53:13;13.50;93.80
569;DHT22;269;48.884;9.192;2023-05-28T03:55:40;13.50;93.90
569;DHT22;269;48.884;9.192;2023-05-28T03:58:07;13.40;94.00
569;DHT22;269;48.884;9.192;2023-05-28T04:00:36;13.40;93.90
569;DHT22;269;48.884;9.192;2023-05-28T04:03:03;13.40;94.10
569;DHT22;269;48.884;9.192;2023-05-28T04:05:30;13.40;94.20
569;DHT22;269;48.884;9.192;2023-05-28T04:07:59;13.40;94.40
569;DHT22;269;48.884;9.192;2023-05-28T04:10:26;13.30;94.50
569;DHT22;269;48.884;9.192;2023-05-28T04:12:53;13.30;94.10
569;DHT22;269;48.884;9.192;2023-05-28T04:15:20;13.30;94.10
569;DHT22;269;48.884;9.192;2023-05-28T04:17:49;13.30;94.30
569;DHT22;269;48.884;9.192;2023-05-28T04:20:16;13.40;94.60
569;DHT22;269;48.884;9.192;2023-05-28T04:22:43;13.40;94.90
569;DHT22;269;48.884;9.192;2023-05-28T04:25:10;13.40;94.90
569;DHT22;269;48.884;9.192;2023-05-28T04:27:37;13.40;95.10
569;DHT22;269;48.884;9.192;2023-05-28T04:30:07;13.30;95.40
569;DHT22;269;48.884;9.192;2023-05-28T04:32:35;13.30;96.10
569;DHT22;269;48.884;9.192;2023-05-28T04:35:07;13.30;95.80
569;DHT22;269;48.884;9.192;2023-05-28T04:37:35;13.30;95.70
569;DHT22;269;48.884;9.192;2023-05-28T04:40:03;13.40;96.20
569;DHT22;269;48.884;9.192;2023-05-28T04:42:31;13.40;96.10
569;DHT22;269;48.884;9.192;2023-05-28T04:44:58;13.40;95.90
569;DHT22;269;48.884;9.192;2023-05-28T04:47:25;13.40;96.30
569;DHT22;269;48.884;9.192;2023-05-28T04:49:53;13.40;96.50
569;DHT22;269;48.884;9.192;2023-05-28T04:52:24;13.40;97.00
569;DHT22;269;48.884;9.192;2023-05-28T04:54:52;13.40;97.10
569;DHT22;269;48.884;9.192;2023-05-28T04:57:20;13.50;96.60
569;DHT22;269;48.884;9.192;2023-05-28T04:59:47;13.50;96.60
569;DHT22;269;48.884;9.192;2023-05-28T05:02:15;13.60;96.70
569;DHT22;269;48.884;9.192;2023-05-28T05:04:42;13.70;96.20
569;DHT22;269;48.884;9.192;2023-05-28T05:07:09;13.70;95.80
569;DHT22;269;48.884;9.192;2023-05-28T05:09:38;13.90;95.40
569;DHT22;269;48.884;9.192;2023-05-28T05:12:06;13.90;95.10
569;DHT22;269;48.884;9.192;2023-05-28T05:14:33;14.00;94.90
569;DHT22;269;48.884;9.192;2023-05-28T05:17:00;14.10;95.20
569;DHT22;269;48.884;9.192;2023-05-28T05:19:28;14.20;95.30
569;DHT22;269;48.884;9.192;2023-05-28T05:21:55;14.20;95.50
569;DHT22;269;48.884;9.192;2023-05-28T05:24:22;14.30;95.80
569;DHT22;269;48.884;9.192;2023-05-28T05:26:50;14.40;95.60
569;DHT22;269;48.884;9.192;2023-05-28T05:29:17;14.50;96.10
569;DHT22;269;48.884;9.192;2023-05-28T05:31:44;14.40;96.30
569;DHT22;269;48.884;9.192;2023-05-28T05:34:11;14.50;96.70
569;DHT22;269;48.884;9.192;2023-05-28T05:36:38;14.60;97.10
569;DHT22;269;48.884;9.192;2023-05-28T05:39:05;14.60;97.60
569;DHT22;269;48.884;9.192;2023-05-28T05:41:32;14.70;97.80
569;DHT22;269;48.884;9.192;2023-05-28T05:44:00;14.80;97.10
569;DHT22;269;48.884;9.192;2023-05-28T05:46:27;14.90;97.30
569;DHT22;269;48.884;9.192;2023-05-28T05:48:54;15.00;96.30
569;DHT22;269;48.884;9.192;2023-05-28T05:51:21;15.10;95.80
569;DHT22;269;48.884;9.192;2023-05-28T05:53:48;15.20;95.60
569;DHT22;269;48.884;9.192;2023-05-28T05:56:15;15.30;95.60
569;DHT22;269;48.884;9.192;2023-05-28T05:58:43;15.40;94.30
569;DHT22;269;48.884;9.192;2023-05-28T06:01:15;15.50;94.10
569;DHT22;269;48.884;9.192;2023-05-28T06:03:43;15.60;94.40
569;DHT22;269;48.884;9.192;2023-05-28T06:06:10;15.60;94.40
569;DHT22;269;48.884;9.192;2023-05-28T06:08:37;15.80;94.90
569;DHT22;269;48.884;9.192;2023-05-28T06:11:05;15.90;94.10
569;DHT22;269;48.884;9.192;2023-05-28T06:13:32;16.00;93.30
569;DHT22;269;48.884;9.192;2023-05-28T06:15:59;16.20;93.30
569;DHT22;269;48.884;9.192;2023-05-28T06:18:29;16.30;93.20
569;DHT22;269;48.884;9.192;2023-05-28T06:20:56;16.40;92.90
569;DHT22;269;48.884;9.192;2023-05-28T06:23:23;16.70;92.40
569;DHT22;269;48.884;9.192;2023-05-28T06:25:50;16.70;91.90
569;DHT22;269;48.884;9.192;2023-05-28T06:28:17;16.90;91.40
569;DHT22;269;48.884;9.192;2023-05-28T06:30:44;17.00;90.90
569;DHT22;269;48.884;9.192;2023-05-28T06:33:11;17.20;90.50
569;DHT22;269;48.884;9.192;2023-05-28T06:35:40;17.30;89.50
569;DHT22;269;48.884;9.192;2023-05-28T06:38:07;17.40;89.10
569;DHT22;269;48.884;9.192;2023-05-28T06:40:34;17.60;88.30
569;DHT22;269;48.884;9.192;2023-05-28T06:43:01;17.70;86.60
569;DHT22;269;48.884;9.192;2023-05-28T06:45:28;17.70;87.40
569;DHT22;269;48.884;9.192;2023-05-28T06:47:58;17.80;87.60
569;DHT22;269;48.884;9.192;2023-05-28T06:50:25;18.00;87.70
569;DHT22;269;48.884;9.192;2023-05-28T06:52:54;18.10;87.00
569;DHT22;269;48.884;9.192;2023-05-28T06:55:21;18.20;84.90
569;DHT22;269;48.884;9.192;2023-05-28T06:57:48;18.20;86.20
569;DHT22;269;48.884;9.192;2023-05-28T07:00:16;18.20;86.20
569;DHT22;269;48.884;9.192;2023-05-28T07:02:44;18.30;86.50
569;DHT22;269;48.884;9.192;2023-05-28T07:05:11;18.40;86.30
569;DHT22;269;48.884;9.192;2023-05-28T07:07:39;18.50;86.10
569;DHT22;269;48.884;9.192;2023-05-28T07:10:07;18.70;85.60
569;DHT22;269;48.884;9.192;2023-05-28T07:12:35;18.90;84.70
569;DHT22;269;48.884;9.192;2023-05-28T07:15:03;19.00;84.60
569;DHT22;269;48.884;9.192;2023-05-28T07:17:30;19.20;84.50
569;DHT22;269;48.884;9.192;2023-05-28T07:19:57;19.30;84.50
569;DHT22;269;48.884;9.192;2023-05-28T07:22:24;19.70;84.90
569;DHT22;269;48.884;9.192;2023-05-28T07:24:52;19.60;83.60
569;DHT22;269;48.884;9.192;2023-05-28T07:27:20;19.70;83.20
569;DHT22;269;48.884;9.192;2023-05-28T07:29:47;19.90;83.80
569;DHT22;269;48.884;9.192;2023-05-28T07:32:14;20.10;82.80
569;DHT22;269;48.884;9.192;2023-05-28T07:34:41;20.40;82.80
569;DHT22;269;48.884;9.192;2023-05-28T07:37:08;20.70;82.40
569;DHT22;269;48.884;9.192;2023-05-28T07:39:35;21.00;82.00
569;DHT22;269;48.884;9.192;2023-05-28T07:42:03;21.40;81.10
569;DHT22;269;48.884;9.192;2023-05-28T07:44:31;21.80;80.30
569;DHT22;269;48.884;9.192;2023-05-28T07:46:58;22.10;77.90
569;DHT22;269;48.884;9.192;2023-05-28T07:49:25;22.10;78.00
569;DHT22;269;48.884;9.192;2023-05-28T07:51:52;22.30;77.30
569;DHT22;269;48.884;9.192;2023-05-28T07:54:19;22.70;77.50
569;DHT22;269;48.884;9.192;2023-05-28T07:56:46;23.10;76.70
569;DHT22;269;48.884;9.192;2023-05-28T07:59:14;23.40;74.10
569;DHT22;269;48.884;9.192;2023-05-28T08:01:43;23.10;71.90
569;DHT22;269;48.884;9.192;2023-05-28T08:04:10;23.00;73.20
569;DHT22;269;48.884;9.192;2023-05-28T08:06:37;23.10;73.90
569;DHT22;269;48.884;9.192;2023-05-28T08:09:04;23.20;73.00
569;DHT22;269;48.884;9.192;2023-05-28T08:11:31;23.30;72.50
569;DHT22;269;48.884;9.192;2023-05-28T08:13:58;23.30;72.80
569;DHT22;269;48.884;9.192;2023-05-28T08:16:25;23.50;74.00
569;DHT22;269;48.884;9.192;2023-05-28T08:18:53;23.90;72.90
569;DHT22;269;48.884;9.192;2023-05-28T08:21:21;24.20;73.00
569;DHT22;269;48.884;9.192;2023-05-28T08:23:48;24.60;71.10
569;DHT22;269;48.884;9.192;2023-05-28T08:26:15;24.90;70.20
569;DHT22;269;48.884;9.192;2023-05-28T08:28:42;25.30;69.70
569;DHT22;269;48.884;9.192;2023-05-28T08:31:09;25.50;67.60
569;DHT22;269;48.884;9.192;2023-05-28T08:33:36;25.70;67.60
569;DHT22;269;48.884;9.192;2023-05-28T08:36:05;25.70;67.40
569;DHT22;269;48.884;9.192;2023-05-28T08:38:33;25.60;68.90
569;DHT22;269;48.884;9.192;2023-05-28T08:41:01;25.80;67.70
569;DHT22;269;48.884;9.192;2023-05-28T08:43:28;25.90;67.80
569;DHT22;269;48.884;9.192;2023-05-28T08:45:55;26.10;66.00
569;DHT22;269;48.884;9.192;2023-05-28T08:48:23;26.30;66.70
569;DHT22;269;48.884;9.192;2023-05-28T08:50:50;26.20;64.30
569;DHT22;269;48.884;9.192;2023-05-28T08:53:21;25.80;64.10
569;DHT22;269;48.884;9.192;2023-05-28T08:55:49;25.60;64.90
569;DHT22;269;48.884;9.192;2023-05-28T08:58:16;25.80;66.20
569;DHT22;269;48.884;9.192;2023-05-28T09:00:44;26.10;65.30
569;DHT22;269;48.884;9.192;2023-05-28T09:03:11;26.20;63.40
569;DHT22;269;48.884;9.192;2023-05-28T09:05:38;26.20;64.80
569;DHT22;269;48.884;9.192;2023-05-28T09:08:07;26.10;64.70
569;DHT22;269;48.884;9.192;2023-05-28T09:10:35;26.30;65.70
569;DHT22;269;48.884;9.192;2023-05-28T09:13:03;26.40;64.60
569;DHT22;269;48.884;9.192;2023-05-28T09:15:31;26.60;63.70
569;DHT22;269;48.884;9.192;2023-05-28T09:18:00;26.60;64.90
569;DHT22;269;48.884;9.192;2023-05-28T09:20:27;26.60;64.50
569;DHT22;269;48.884;9.192;2023-05-28T09:22:58;26.70;63.80
569;DHT22;269;48.884;9.192;2023-05-28T09:25:26;26.80;63.90
569;DHT22;269;48.884;9.192;2023-05-28T09:27:56;27.10;63.10
569;DHT22;269;48.884;9.192;2023-05-28T09:30:25;27.00;62.70
569;DHT22;269;48.884;9.192;2023-05-28T09:32:56;26.80;63.60
569;DHT22;269;48.884;9.192;2023-05-28T09:35:28;27.00;64.40
569;DHT22;269;48.884;9.192;2023-05-28T09:38:03;27.30;63.70
569;DHT22;269;48.884;9.192;2023-05-28T09:43:28;27.20;62.30
569;DHT22;269;48.884;9.192;2023-05-28T09:46:06;27.30;63.30
569;DHT22;269;48.884;9.192;2023-05-28T09:48:34;27.60;62.20
569;DHT22;269;48.884;9.192;2023-05-28T09:51:04;28.00;61.70
569;DHT22;269;48.884;9.192;2023-05-28T09:53:32;28.50;60.70
569;DHT22;269;48.884;9.192;2023-05-28T09:56:02;29.10;60.40
569;DHT22;269;48.884;9.192;2023-05-28T09:58:32;29.40;59.40
569;DHT22;269;48.884;9.192;2023-05-28T10:01:03;29.60;58.90
569;DHT22;269;48.884;9.192;2023-05-28T10:03:36;29.80;58.00
569;DHT22;269;48.884;9.192;2023-05-28T10:06:06;29.90;57.00
569;DHT22;269;48.884;9.192;2023-05-28T10:08:38;30.10;56.40
569;DHT22;269;48.884;9.192;2023-05-28T10:11:09;30.30;56.10
569;DHT22;269;48.884;9.192;2023-05-28T10:13:40;30.30;56.00
569;DHT22;269;48.884;9.192;2023-05-28T10:16:08;30.30;56.20
569;DHT22;269;48.884;9.192;2023-05-28T10:18:35;29.90;56.10
569;DHT22;269;48.884;9.192;2023-05-28T10:21:03;29.50;55.30
569;DHT22;269;48.884;9.192;2023-05-28T10:23:31;29.40;56.90
569;DHT22;269;48.884;9.192;2023-05-28T10:25:59;29.30;56.50
569;DHT22;269;48.884;9.192;2023-05-28T10:28:29;29.40;56.60
569;DHT22;269;48.884;9.192;2023-05-28T10:31:02;29.20;55.90
569;DHT22;269;48.884;9.192;2023-05-28T10:33:30;29.20;56.30
569;DHT22;269;48.884;9.192;2023-05-28T10:35:59;29.60;55.50
569;DHT22;269;48.884;9.192;2023-05-28T10:38:28;29.90;53.60
569;DHT22;269;48.884;9.192;2023-05-28T10:41:02;29.90;53.20
569;DHT22;269;48.884;9.192;2023-05-28T10:43:44;29.60;53.60
569;DHT22;269;48.884;9.192;2023-05-28T10:46:15;29.40;54.10
569;DHT22;269;48.884;9.192;2023-05-28T10:49:05;29.60;53.70
569;DHT22;269;48.884;9.192;2023-05-28T10:51:49;29.70;53.70
569;DHT22;269;48.884;9.192;2023-05-28T10:54:21;29.20;53.90
569;DHT22;269;48.884;9.192;2023-05-28T10:57:06;28.90;53.80
569;DHT22;269;48.884;9.192;2023-05-28T10:59:44;29.00;55.10
569;DHT22;269;48.884;9.192;2023-05-28T11:02:16;29.20;53.20
569;DHT22;269;48.884;9.192;2023-05-28T11:04:43;29.30;53.10
569;DHT22;269;48.884;9.192;2023-05-28T11:07:12;29.70;51.80
569;DHT22;269;48.884;9.192;2023-05-28T11:09:39;30.10;52.30
569;DHT22;269;48.884;9.192;2023-05-28T11:12:07;30.60;52.00
569;DHT22;269;48.884;9.192;2023-05-28T11:14:35;31.00;49.40
569;DHT22;269;48.884;9.192;2023-05-28T11:17:07;30.90;49.60
569;DHT22;269;48.884;9.192;2023-05-28T11:19:41;30.60;50.00
569;DHT22;269;48.884;9.192;2023-05-28T11:22:08;30.60;51.10
569;DHT22;269;48.884;9.192;2023-05-28T11:24:52;30.60;51.30
569;DHT22;269;48.884;9.192;2023-05-28T11:27:21;31.00;51.20
569;DHT22;269;48.884;9.192;2023-05-28T11:29:49;31.30;50.50
569;DHT22;269;48.884;9.192;2023-05-28T11:32:18;31.70;50.00
569;DHT22;269;48.884;9.192;2023-05-28T11:34:47;32.00;50.30
569;DHT22;269;48.884;9.192;2023-05-28T11:37:15;32.30;49.10
569;DHT22;269;48.884;9.192;2023-05-28T11:39:48;32.60;48.70
569;DHT22;269;48.884;9.192;2023-05-28T11:42:16;32.90;48.80
569;DHT22;269;48.884;9.192;2023-05-28T11:44:44;32.80;48.50
569;DHT22;269;48.884;9.192;2023-05-28T11:47:12;32.30;46.40
569;DHT22;269;48.884;9.192;2023-05-28T11:49:39;32.00;49.00
569;DHT22;269;48.884;9.192;2023-05-28T11:52:11;32.10;47.40
569;DHT22;269;48.884;9.192;2023-05-28T11:54:38;32.30;47.20
569;DHT22;269;48.884;9.192;2023-05-28T11:57:06;32.10;46.90
569;DHT22;269;48.884;9.192;2023-05-28T11:59:34;31.90;48.40
569;DHT22;269;48.884;9.192;2023-05-28T16:02:30;31.60;45.70
569;DHT22;269;48.884;9.192;2023-05-28T16:04:58;30.90;46.80
569;DHT22;269;48.884;9.192;2023-05-28T16:07:26;30.50;47.20
569;DHT22;269;48.884;9.192;2023-05-28T16:09:53;30.10;47.70
569;DHT22;269;48.884;9.192;2023-05-28T16:12:21;29.90;47.80
569;DHT22;269;48.884;9.192;2023-05-28T16:14:50;29.70;48.80
569;DHT22;269;48.884;9.192;2023-05-28T16:17:17;29.40;48.40
569;DHT22;269;48.884;9.192;2023-05-28T16:19:47;29.10;49.00
569;DHT22;269;48.884;9.192;2023-05-28T16:22:14;28.80;49.00
569;DHT22;269;48.884;9.192;2023-05-28T16:24:42;28.70;49.20
569;DHT22;269;48.884;9.192;2023-05-28T16:27:10;28.40;49.30
569;DHT22;269;48.884;9.192;2023-05-28T16:29:38;28.30;49.80
569;DHT22;269;48.884;9.192;2023-05-28T16:32:05;28.20;49.80
569;DHT22;269;48.884;9.192;2023-05-28T16:34:33;28.10;50.20
569;DHT22;269;48.884;9.192;2023-05-28T16:37:02;28.00;50.20
569;DHT22;269;48.884;9.192;2023-05-28T16:39:31;27.80;50.40
569;DHT22;269;48.884;9.192;2023-05-28T16:41:59;27.70;50.50
569;DHT22;269;48.884;9.192;2023-05-28T16:44:27;27.50;50.30
569;DHT22;269;48.884;9.192;2023-05-28T16:46:54;27.50;50.50
569;DHT22;269;48.884;9.192;2023-05-28T16:49:22;27.40;50.10
569;DHT22;269;48.884;9.192;2023-05-28T16:51:49;27.30;49.50
569;DHT22;269;48.884;9.192;2023-05-28T16:54:18;27.10;50.20
569;DHT22;269;48.884;9.192;2023-05-28T16:56:45;26.90;50.00
569;DHT22;269;48.884;9.192;2023-05-28T16:59:12;26.80;50.50
569;DHT22;269;48.884;9.192;2023-05-28T17:01:39;26.70;50.70
569;DHT22;269;48.884;9.192;2023-05-28T17:04:07;26.60;50.40
569;DHT22;269;48.884;9.192;2023-05-28T17:06:34;26.50;50.40
569;DHT22;269;48.884;9.192;2023-05-28T17:09:01;26.40;50.00
569;DHT22;269;48.884;9.192;2023-05-28T17:11:31;26.30;50.00
569;DHT22;269;48.884;9.192;2023-05-28T17:13:58;26.30;50.20
569;DHT22;269;48.884;9.192;2023-05-28T17:16:25;26.30;50.40
569;DHT22;269;48.884;9.192;2023-05-28T17:18:52;26.20;50.00
569;DHT22;269;48.884;9.192;2023-05-28T17:21:19;26.10;50.10
569;DHT22;269;48.884;9.192;2023-05-28T17:23:46;25.80;49.80
569;DHT22;269;48.884;9.192;2023-05-28T17:26:13;25.60;50.40
569;DHT22;269;48.884;9.192;2023-05-28T17:28:41;25.50;50.40
569;DHT22;269;48.884;9.192;2023-05-28T17:31:08;25.40;50.90
569;DHT22;269;48.884;9.192;2023-05-28T17:33:36;25.40;51.40
569;DHT22;269;48.884;9.192;2023-05-28T17:36:03;25.30;51.60
569;DHT22;269;48.884;9.192;2023-05-28T17:38:30;25.30;51.40
569;DHT22;269;48.884;9.192;2023-05-28T17:40:57;25.20;51.80
569;DHT22;269;48.884;9.192;2023-05-28T17:43:24;25.10;52.00
569;DHT22;269;48.884;9.192;2023-05-28T17:45:54;25.00;52.20
569;DHT22;269;48.884;9.192;2023-05-28T17:48:22;25.00;52.60
569;DHT22;269;48.884;9.192;2023-05-28T17:50:49;24.90;52.80
569;DHT22;269;48.884;9.192;2023-05-28T17:53:16;24.90;53.20
569;DHT22;269;48.884;9.192;2023-05-28T17:55:44;24.80;53.20
569;DHT22;269;48.884;9.192;2023-05-28T17:58:11;24.80;53.50
569;DHT22;269;48.884;9.192;2023-05-28T18:00:38;24.80;53.60
569;DHT22;269;48.884;9.192;2023-05-28T18:03:06;24.70;53.70
569;DHT22;269;48.884;9.192;2023-05-28T18:05:33;24.70;54.00
569;DHT22;269;48.884;9.192;2023-05-28T18:08:00;24.60;54.40
569;DHT22;269;48.884;9.192;2023-05-28T18:10:28;24.60;54.40
569;DHT22;269;48.884;9.192;2023-05-28T18:12:55;24.50;54.80
569;DHT22;269;48.884;9.192;2023-05-28T18:15:22;24.50;54.50
569;DHT22;269;48.884;9.192;2023-05-28T18:17:50;24.40;54.50
569;DHT22;269;48.884;9.192;2023-05-28T18:20:19;24.30;55.00
569;DHT22;269;48.884;9.192;2023-05-28T18:22:46;24.30;55.30
569;DHT22;269;48.884;9.192;2023-05-28T18:25:13;24.20;55.30
569;DHT22;269;48.884;9.192;2023-05-28T18:27:40;24.10;55.40
569;DHT22;269;48.884;9.192;2023-05-28T18:30:08;24.10;55.40
569;DHT22;269;48.884;9.192;2023-05-28T18:32:35;24.00;55.60
569;DHT22;269;48.884;9.192;2023-05-28T18:35:02;24.00;55.50
569;DHT22;269;48.884;9.192;2023-05-28T18:37:31;23.90;55.90
569;DHT22;269;48.884;9.192;2023-05-28T18:39:58;23.80;55.70
569;DHT22;269;48.884;9.192;2023-05-28T18:42:25;23.80;56.30
569;DHT22;269;48.884;9.192;2023-05-28T18:44:52;23.80;56.20
569;DHT22;269;48.884;9.192;2023-05-28T18:47:20;23.70;56.30
569;DHT22;269;48.884;9.192;2023-05-28T18:49:46;23.70;56.40
569;DHT22;269;48.884;9.192;2023-05-28T18:52:13;23.60;56.30
569;DHT22;269;48.884;9.192;2023-05-28T18:54:42;23.60;56.60
569;DHT22;269;48.884;9.192;2023-05-28T18:57:09;23.50;56.90
569;DHT22;269;48.884;9.192;2023-05-28T18:59:36;23.40;56.80
569;DHT22;269;48.884;9.192;2023-05-28T19:02:06;23.40;56.90
569;DHT22;269;48.884;9.192;2023-05-28T19:04:34;23.30;57.00
569;DHT22;269;48.884;9.192;2023-05-28T19:07:01;23.30;57.40
569;DHT22;269;48.884;9.192;2023-05-28T19:09:29;23.20;57.50
569;DHT22;269;48.884;9.192;2023-05-28T19:11:57;23.10;57.70
569;DHT22;269;48.884;9.192;2023-05-28T19:14:24;23.00;57.90
569;DHT22;269;48.884;9.192;2023-05-28T19:16:51;22.90;58.10
569;DHT22;269;48.884;9.192;2023-05-28T19:19:18;22.80;58.30
569;DHT22;269;48.884;9.192;2023-05-28T19:21:48;22.70;58.70
569;DHT22;269;48.884;9.192;2023-05-28T19:24:15;22.70;59.00
569;DHT22;269;48.884;9.192;2023-05-28T19:26:42;22.60;59.30
569;DHT22;269;48.884;9.192;2023-05-28T19:29:10;22.50;59.60
569;DHT22;269;48.884;9.192;2023-05-28T19:31:38;22.40;60.00
569;DHT22;269;48.884;9.192;2023-05-28T19:34:06;22.40;60.20
569;DHT22;269;48.884;9.192;2023-05-28T19:36:33;22.30;60.50
569;DHT22;269;48.884;9.192;2023-05-28T19:39:01;22.20;60.70
569;DHT22;269;48.884;9.192;2023-05-28T19:41:41;22.10;61.10
569;DHT22;269;48.884;9.192;2023-05-28T19:44:11;22.10;61.30
569;DHT22;269;48.884;9.192;2023-05-28T19:46:38;22.00;61.50
569;DHT22;269;48.884;9.192;2023-05-28T19:49:05;22.00;62.20
569;DHT22;269;48.884;9.192;2023-05-28T19:51:32;21.90;62.20
569;DHT22;269;48.884;9.192;2023-05-28T19:53:59;21.80;62.50
569;DHT22;269;48.884;9.192;2023-05-28T19:56:26;21.80;62.80
569;DHT22;269;48.884;9.192;2023-05-28T19:58:53;21.70;63.10
569;DHT22;269;48.884;9.192;2023-05-28T20:01:22;21.70;63.10
569;DHT22;269;48.884;9.192;2023-05-28T20:03:49;21.50;63.10
569;DHT22;269;48.884;9.192;2023-05-28T20:06:16;21.50;63.50
569;DHT22;269;48.884;9.192;2023-05-28T20:08:43;21.40;63.50
569;DHT22;269;48.884;9.192;2023-05-28T20:11:10;21.30;63.50
569;DHT22;269;48.884;9.192;2023-05-28T20:13:37;21.20;63.70
569;DHT22;269;48.884;9.192;2023-05-28T20:16:05;21.10;63.90
569;DHT22;269;48.884;9.192;2023-05-28T20:18:33;21.10;64.30
569;DHT22;269;48.884;9.192;2023-05-28T20:21:02;21.00;64.40
569;DHT22;269;48.884;9.192;2023-05-28T20:23:31;21.00;64.70
569;DHT22;269;48.884;9.192;2023-05-28T20:25:58;20.90;64.80
569;DHT22;269;48.884;9.192;2023-05-28T20:28:26;20.80;65.10
569;DHT22;269;48.884;9.192;2023-05-28T20:30:53;20.70;65.20
569;DHT22;269;48.884;9.192;2023-05-28T20:33:20;20.70;65.40
569;DHT22;269;48.884;9.192;2023-05-28T20:35:48;20.60;65.40
569;DHT22;269;48.884;9.192;2023-05-28T20:38:15;20.50;65.60
569;DHT22;269;48.884;9.192;2023-05-28T20:40:42;20.50;65.90
569;DHT22;269;48.884;9.192;2023-05-28T20:43:10;20.40;66.10